Disclaimer

Please do not use the information listed here in-flight or in-navigation, as they are not provided to us by the airports but are provided by volunteers, so they might be outdated.

Search


Regions


Airport information page

Radio informations:
Tower (TWR) - 120.1 MHz
Automatic Terminal Information Service (ATIS) - 126.6 MHz
Approach (APP) - 120.1 MHz

Airport informations:
Latitude: 03° 25' 45.86" S
Longitude: 037° 04' 28.06" E
Elevation: 2932 feet - 894 meters
Operating hours: N/A
Operating agency: Civil government, landing fees and diplomatic clearance may be required
Timezone: UTC+3
Fuel: Jet A1, without icing nhibitor.

100/130 MIL Spec, low lead, aviation gasoline (BLUE)

Runway information:
09/27 - 11834 x 148 feet< - >3607 x 45 meters

Recent METARs:
HTKJ 160900Z 30010KT 9999 SCT032 29/17 Q1017 NOSIG
HTKJ 160900Z 30010KT 9999 SCT032 29/17 Q1017 NOSIG
HTKJ 161000Z 00000KT 9999 FEW033CB SCT034 30/17 Q1016 NOSIG

Airport on the map: